Flight Track Log - Related Links

Times and Time Zones

All times are in EDT time to prevent confusion due to time zone crossing. See the N5EC flight status page for this flight to view local times or setup timezone preferences in your user account.

Time Position Orientation Groundspeed Altitude Reporting Facility
EDT Latitude Longitude Course Direction KTS MPH feet Rate Location/Type
Mon 04:17:15 PM 36.6972 -82.0376 333° Northwest  Level FlightAware Approximate
Mon 04:18:15 PM 36.7383 -82.0550 332° Northwest  Level FlightAware Approximate
Mon 04:24:59 PM 36.9986 -82.2308 332° Northwest 167 192 7,900  Level Indianapolis Center
Mon 04:25:59 PM 37.0364 -82.2561 333° Northwest 157 181 7,900  Level Indianapolis Center
Mon 04:26:59 PM 37.0722 -82.2789 338° Northwest 157 181 7,900  Level Indianapolis Center
Mon 04:27:59 PM 37.1122 -82.2992 334° Northwest 152 175 7,900  Level Indianapolis Center
Mon 04:28:59 PM 37.1500 -82.3219 338° Northwest 152 175 7,900  Level Indianapolis Center
Mon 04:29:59 PM 37.1897 -82.3422 334° Northwest 152 175 7,900  Level Indianapolis Center
Mon 04:30:59 PM 37.2275 -82.3650 336° Northwest 152 175 7,900  Level Indianapolis Center
Mon 04:31:59 PM 37.2675 -82.3878 334° Northwest 152 175 7,900  Level Indianapolis Center
Mon 04:32:59 PM 37.3053 -82.4108 335° Northwest 152 175 7,900  Level Indianapolis Center
Mon 04:33:59 PM 37.3450 -82.4336 335° Northwest 152 175 7,900  Level Indianapolis Center
Mon 04:34:59 PM 37.3847 -82.4567 334° Northwest 152 175 7,900  Level Indianapolis Center
Mon 04:35:59 PM 37.4225 -82.4794 335° Northwest 152 175 7,900  Level Indianapolis Center
Mon 04:36:59 PM 37.4625 -82.5025 332° Northwest 152 175 7,900  Level Indianapolis Center
Mon 04:37:59 PM 37.5003 -82.5283 338° Northwest 152 175 7,900  Level Indianapolis Center
Mon 04:38:59 PM 37.5400 -82.5486 335° Northwest 152 175 7,900  Level Indianapolis Center
Mon 04:39:59 PM 37.5800 -82.5717 334° Northwest 152 175 7,900  Level Indianapolis Center
Mon 04:40:59 PM 37.6175 -82.5947 334° Northwest 152 175 7,900  Level Indianapolis Center
Mon 04:41:59 PM 37.6553 -82.6178 338° Northwest 152 175 7,900  Level Indianapolis Center
Mon 04:42:59 PM 37.6953 -82.6383 334° Northwest 152 175 7,900  Level Indianapolis Center
Mon 04:43:59 PM 37.7369 -82.6642 339° North 152 175 7,900  Level Indianapolis Center
Mon 04:44:59 PM 37.7728 -82.6819 333° Northwest 152 175 7,900  Level Indianapolis Center
Mon 04:45:59 PM 37.8083 -82.7053 333° Northwest 152 175 7,900 50 Level Indianapolis Center
Mon 04:46:59 PM 37.8481 -82.7311 336° Northwest 152 175 8,000 50 Climbing Indianapolis Center
Mon 04:47:59 PM 37.8900 -82.7544 335° Northwest 152 175 8,000 -50 Level Indianapolis Center
Mon 04:48:59 PM 37.9297 -82.7775 342° North 152 175 7,900 -6 Descending Indianapolis Center
Mon 05:03:47 PM 38.5611 -83.0364 350° North 173 199 7,900  Level Indianapolis Center
Mon 05:04:47 PM 38.6050 -83.0467 344° North 172 198 7,900  Level Indianapolis Center
Mon 05:05:47 PM 38.6489 -83.0625 350° North 166 191 7,900  Level Indianapolis Center
Mon 05:06:47 PM 38.6925 -83.0728 344° North 166 191 7,900  Level Indianapolis Center
Mon 05:07:47 PM 38.7344 -83.0886 347° North 174 200 7,900 50 Level Indianapolis Center
Mon 05:08:47 PM 38.7761 -83.1014 350° North 180 207 8,000 50 Climbing Indianapolis Center
Mon 05:09:47 PM 38.8222 -83.1119 355° North 174 200 8,000  Level Indianapolis Center
Mon 05:10:47 PM 38.8700 -83.1169 350° North 169 194 8,000  Level Indianapolis Center
Mon 05:11:47 PM 38.9161 -83.1272 341° North 163 188 8,000  Level Indianapolis Center
Mon 05:12:47 PM 38.9578 -83.1458 347° North 163 188 8,000  Level Indianapolis Center
Mon 05:13:47 PM 39.0017 -83.1589 346° North 163 188 8,000  Level Indianapolis Center
Mon 05:14:47 PM 39.0517 -83.1747 344° North 164 189 8,000  Level Indianapolis Center
Mon 05:15:47 PM 39.0956 -83.1906 347° North 164 189 8,000  Level Indianapolis Center
Mon 05:16:47 PM 39.1394 -83.2036 350° North 164 189 8,000 -50 Level Indianapolis Center
Mon 05:17:47 PM 39.1853 -83.2142 355° North 169 194 7,900 -50 Descending Indianapolis Center
Mon 05:18:47 PM 39.2311 -83.2192 343° North 161 185 7,900  Level Indianapolis Center
Mon 05:19:41 PM 39.2708 -83.2353 353° North 163 188 7,900  Level Indianapolis Center
Mon 05:20:42 PM 39.3167 -83.2431 338° Northwest 165 190 7,900  Level Indianapolis Center
Mon 05:21:43 PM 39.3583 -83.2644 348° North 161 185 7,900  Level Indianapolis Center
Mon 05:22:44 PM 39.4044 -83.2775 352° North 164 189 7,900  Level Indianapolis Center
Mon 05:23:47 PM 39.4461 -83.2856 344° North 161 185 7,900  Level Indianapolis Center
Mon 05:24:47 PM 39.4900 -83.3014 342° North 166 191 7,900  Level Indianapolis Center
Mon 05:25:46 PM 39.5400 -83.3228 352° North 163 188 7,900  Level Indianapolis Center
Mon 05:26:47 PM 39.5817 -83.3308 344° North 166 191 7,900  Level Indianapolis Center
Mon 05:27:47 PM 39.6256 -83.3467 346° North 161 185 7,900  Level Indianapolis Center
Mon 05:28:47 PM 39.6672 -83.3600 338° Northwest 161 185 7,900  Level Indianapolis Center
Mon 05:29:43 PM 39.7089 -83.3817 347° North 158 182 7,900  Level Indianapolis Center
Mon 05:30:45 PM 39.7547 -83.3950 344° North 162 186 7,900  Level Indianapolis Center
Mon 05:31:45 PM 39.7986 -83.4111 350° North 161 185 7,900  Level Indianapolis Center
Mon 05:32:46 PM 39.8425 -83.4217 347° North 159 183 7,900  Level Indianapolis Center
Mon 05:33:47 PM 39.8861 -83.4353 348° North 160 184 7,900  Level Indianapolis Center
Mon 05:34:48 PM 39.9322 -83.4486 343° North 164 189 7,900  Level Indianapolis Center
Mon 05:35:55 PM 39.9800 -83.4675 343° North 163 188 7,900  Level Indianapolis Center
Mon 05:36:50 PM 40.0217 -83.4839 347° North 164 189 7,900  Level Indianapolis Center
Mon 05:37:50 PM 40.0656 -83.4972 347° North 163 188 7,900  Level Indianapolis Center
Mon 05:38:51 PM 40.1114 -83.5108 348° North 164 189 7,900  Level Indianapolis Center
Mon 05:39:35 PM 40.1406 -83.5189 344° North 162 186 7,900  Level Indianapolis Center
Mon 05:40:35 PM 40.1844 -83.5353 349° North 162 186 7,900  Level Indianapolis Center
Mon 05:41:35 PM 40.2281 -83.5461 346° North 168 193 7,900  Level Indianapolis Center
Mon 05:42:35 PM 40.2697 -83.5597 345° North 179 206 7,900  Level Indianapolis Center
Mon 05:43:35 PM 40.3156 -83.5761 347° North 179 206 7,900  Level Indianapolis Center
Mon 05:44:35 PM 40.3594 -83.5897 344° North 173 199 7,900  Level Indianapolis Center
Mon 05:45:35 PM 40.4033 -83.6061 347° North 162 186 7,900  Level Indianapolis Center
Mon 05:46:35 PM 40.4469 -83.6197 345° North 162 186 7,900  Level Indianapolis Center
Mon 05:47:35 PM 40.4950 -83.6361 345° North 169 194 7,900  Level Indianapolis Center
Mon 05:48:35 PM 40.5408 -83.6525 344° North 164 189 7,900  Level Indianapolis Center
Mon 05:49:35 PM 40.5844 -83.6692 349° North 164 189 7,900  Level Indianapolis Center
Mon 05:50:35 PM 40.6283 -83.6800 342° North 164 189 7,900  Level Indianapolis Center
Mon 05:51:35 PM 40.6739 -83.6994 345° North 164 189 7,900  Level Indianapolis Center
Mon 05:59:15 PM 41.0093 -83.8155 10° North  Level FlightAware Approximate
Mon 06:00:15 PM 41.0539 -83.8053 10° North  Level FlightAware Approximate
Mon 06:01:15 PM 41.0985 -83.7950 10° North  Level FlightAware Approximate
Mon 06:02:15 PM 41.1430 -83.7848 10° North  Level FlightAware Approximate
Mon 06:03:15 PM 41.1876 -83.7745 10° North  Level FlightAware Approximate
Mon 06:04:15 PM 41.2322 -83.7642 10° North  Level FlightAware Approximate
Mon 06:05:15 PM 41.2767 -83.7539 10° North  Level FlightAware Approximate
Mon 06:06:15 PM 41.3213 -83.7436 10° North  Level FlightAware Approximate
Mon 06:07:15 PM 41.3658 -83.7333 10° North  Level FlightAware Approximate
Mon 06:08:15 PM 41.4104 -83.7229 10° North  Level FlightAware Approximate
Mon 06:09:15 PM 41.4549 -83.7126 10° North  Level FlightAware Approximate
Mon 06:10:15 PM 41.4995 -83.7022 10° North  Level FlightAware Approximate
Mon 06:11:15 PM 41.5441 -83.6918 10° North  Level FlightAware Approximate
Mon 06:12:15 PM 41.5886 -83.6814 10° North  Level FlightAware Approximate
Mon 06:13:15 PM 41.6332 -83.6710 10° North  Level FlightAware Approximate
Mon 06:14:15 PM 41.6777 -83.6606 10° North  Level FlightAware Approximate
Mon 06:15:15 PM 41.7223 -83.6501 10° North  Level FlightAware Approximate
Mon 06:16:15 PM 41.7668 -83.6397 10° North  Level FlightAware Approximate
Mon 06:17:15 PM 41.8114 -83.6292 10° North  Level FlightAware Approximate
Mon 06:18:15 PM 41.8559 -83.6187 10° North  Level FlightAware Approximate
Mon 06:19:15 PM 41.9005 -83.6082 10° North  Level FlightAware Approximate
Mon 06:20:15 PM 41.9450 -83.5977 10° North  Level FlightAware Approximate
Mon 06:21:15 PM 41.9896 -83.5872 10° North  Level FlightAware Approximate
Mon 06:22:15 PM 42.0341 -83.5767 10° North  Level FlightAware Approximate
Mon 06:23:15 PM 42.0786 -83.5661 10° North  Level FlightAware Approximate
Mon 06:24:15 PM 42.1232 -83.5555 10° North  Level FlightAware Approximate
Mon 06:25:15 PM 42.1677 -83.5449 10° North  Level FlightAware Approximate
Mon 06:26:15 PM 42.2123 -83.5343 10° North  Level FlightAware Approximate
Mon 06:27:15 PM 42.2568 -83.5237 10° North  Level FlightAware Approximate
Mon 06:28:15 PM 42.3013 -83.5131 10° North  Level FlightAware Approximate
Mon 06:29:15 PM 42.3459 -83.5024 10° North  Level FlightAware Approximate
Mon 06:30:15 PM 42.3904 -83.4918 10° North  Level FlightAware Approximate
Mon 06:31:15 PM 42.4350 -83.4811 10° North  Level FlightAware Approximate
Mon 06:32:15 PM 42.4795 -83.4704 10° North  Level FlightAware Approximate
Mon 06:33:15 PM 42.5240 -83.4597 10° North  Level FlightAware Approximate
Mon 06:34:15 PM 42.5686 -83.4490 10° North  Level FlightAware Approximate
Mon 06:35:15 PM 42.6131 -83.4382 23° Northeast  Level FlightAware Approximate
Mon 06:36:15 PM 42.6500 -83.4167 350° North  Level FlightAware Approximate
Mon 06:37:15 PM 42.6945 -83.4276 170° South  Level Estimated
Mon 06:38:15 PM 42.6500 -83.4167 350° North  Level Estimated
Mon 06:39:15 PM 42.6945 -83.4276 170° South  Level Estimated
Mon 06:40:15 PM 42.6500 -83.4167 350° North  Level FlightAware Approximate
Mon 06:41:15 PM 42.6945 -83.4276 170° South  Level Estimated
Mon 06:42:15 PM 42.6500 -83.4167 350° North  Level FlightAware Approximate
Mon 06:43:15 PM 42.6945 -83.4276 170° South  Level Estimated
Mon 06:44:15 PM 42.6500 -83.4167 350° North  Level FlightAware Approximate
Mon 06:45:15 PM 42.6945 -83.4276 170° South  Level Estimated
Mon 06:46:15 PM 42.6500 -83.4167 350° North  Level FlightAware Approximate
Mon 06:47:15 PM 42.6945 -83.4276 170° South  Level Estimated
Mon 06:48:15 PM 42.6500 -83.4167 350° North  Level FlightAware Approximate
Mon 06:49:15 PM 42.6945 -83.4276 170° South  Level Estimated
Mon 06:50:15 PM 42.6500 -83.4167 350° North  Level FlightAware Approximate
Mon 06:51:15 PM 42.6945 -83.4276 170° South  Level Estimated
Mon 06:52:15 PM 42.6500 -83.4167 350° North  Level FlightAware Approximate
Mon 06:53:15 PM 42.6945 -83.4276 170° South  Level Estimated
Mon 06:54:15 PM 42.6500 -83.4167 350° North  Level FlightAware Approximate
Mon 06:55:15 PM 42.6945 -83.4276 170° South  Level Estimated
Mon 06:56:15 PM 42.6500 -83.4167 170° South  Level FlightAware Approximate

Login

Don't have an account? Register now (free) for customized features, flight alerts, and more!